sensor_id;sensor_type;location;lat;lon;timestamp;pressure;altitude;pressure_sealevel;temperature;humidity
23733;BME280;12047;53.450;-2.286;2023-05-12T00:02:13;101945.06;;;17.38;100.00
23733;BME280;12047;53.450;-2.286;2023-05-12T00:07:14;101946.84;;;17.29;100.00
23733;BME280;12047;53.450;-2.286;2023-05-12T00:12:14;101958.75;;;17.35;100.00
23733;BME280;12047;53.450;-2.286;2023-05-12T00:17:14;101965.06;;;17.26;100.00
23733;BME280;12047;53.450;-2.286;2023-05-12T00:22:15;101976.22;;;17.21;100.00
23733;BME280;12047;53.450;-2.286;2023-05-12T00:27:16;101975.34;;;17.03;100.00
23733;BME280;12047;53.450;-2.286;2023-05-12T00:32:16;101975.38;;;17.21;100.00
23733;BME280;12047;53.450;-2.286;2023-05-12T00:37:17;101977.50;;;16.90;100.00
23733;BME280;12047;53.450;-2.286;2023-05-12T00:42:17;101987.88;;;17.30;100.00
23733;BME280;12047;53.450;-2.286;2023-05-12T00:47:18;101980.44;;;17.24;100.00
23733;BME280;12047;53.450;-2.286;2023-05-12T00:52:19;101997.38;;;17.15;100.00
23733;BME280;12047;53.450;-2.286;2023-05-12T00:57:21;101990.06;;;16.89;100.00
23733;BME280;12047;53.450;-2.286;2023-05-12T01:02:22;101998.69;;;17.11;100.00
23733;BME280;12047;53.450;-2.286;2023-05-12T01:07:24;102001.91;;;16.87;100.00
23733;BME280;12047;53.450;-2.286;2023-05-12T01:12:26;102008.72;;;16.81;100.00
23733;BME280;12047;53.450;-2.286;2023-05-12T01:17:30;102015.94;;;16.52;100.00
23733;BME280;12047;53.450;-2.286;2023-05-12T01:22:32;102017.66;;;16.53;100.00
23733;BME280;12047;53.450;-2.286;2023-05-12T01:27:33;102025.19;;;16.77;100.00
23733;BME280;12047;53.450;-2.286;2023-05-12T01:32:35;102029.91;;;16.36;100.00
23733;BME280;12047;53.450;-2.286;2023-05-12T01:37:37;102032.41;;;16.66;100.00
23733;BME280;12047;53.450;-2.286;2023-05-12T01:42:38;102040.28;;;16.78;100.00
23733;BME280;12047;53.450;-2.286;2023-05-12T01:47:40;102046.72;;;16.85;100.00
23733;BME280;12047;53.450;-2.286;2023-05-12T01:52:40;102052.69;;;16.69;100.00
23733;BME280;12047;53.450;-2.286;2023-05-12T01:57:41;102055.16;;;16.90;100.00
23733;BME280;12047;53.450;-2.286;2023-05-12T02:02:41;102066.94;;;17.34;100.00
23733;BME280;12047;53.450;-2.286;2023-05-12T02:07:41;102066.97;;;16.12;100.00
23733;BME280;12047;53.450;-2.286;2023-05-12T02:12:42;102078.88;;;17.40;100.00
23733;BME280;12047;53.450;-2.286;2023-05-12T02:17:42;102076.72;;;17.53;100.00
23733;BME280;12047;53.450;-2.286;2023-05-12T02:22:43;102084.66;;;16.71;100.00
23733;BME280;12047;53.450;-2.286;2023-05-12T02:27:43;102079.22;;;16.24;100.00
23733;BME280;12047;53.450;-2.286;2023-05-12T02:32:44;102081.47;;;16.28;100.00
23733;BME280;12047;53.450;-2.286;2023-05-12T02:37:44;102081.72;;;16.45;100.00
23733;BME280;12047;53.450;-2.286;2023-05-12T02:42:45;102079.91;;;16.26;100.00
23733;BME280;12047;53.450;-2.286;2023-05-12T02:47:45;102088.75;;;16.36;100.00
23733;BME280;12047;53.450;-2.286;2023-05-12T02:52:49;102088.50;;;16.20;100.00
23733;BME280;12047;53.450;-2.286;2023-05-12T02:57:49;102091.44;;;15.97;100.00
23733;BME280;12047;53.450;-2.286;2023-05-12T03:02:50;102093.69;;;15.92;100.00
23733;BME280;12047;53.450;-2.286;2023-05-12T03:07:50;102093.53;;;15.84;100.00
23733;BME280;12047;53.450;-2.286;2023-05-12T03:12:51;102091.72;;;15.75;100.00
23733;BME280;12047;53.450;-2.286;2023-05-12T03:17:51;102100.72;;;16.13;100.00
23733;BME280;12047;53.450;-2.286;2023-05-12T03:22:52;102102.84;;;16.38;100.00
23733;BME280;12047;53.450;-2.286;2023-05-12T03:27:52;102106.22;;;16.11;100.00
23733;BME280;12047;53.450;-2.286;2023-05-12T03:32:53;102115.75;;;15.75;100.00
23733;BME280;12047;53.450;-2.286;2023-05-12T03:37:53;102123.84;;;16.23;100.00
23733;BME280;12047;53.450;-2.286;2023-05-12T03:42:54;102117.06;;;16.10;100.00
23733;BME280;12047;53.450;-2.286;2023-05-12T03:47:54;102129.13;;;15.85;100.00
23733;BME280;12047;53.450;-2.286;2023-05-12T03:52:54;102125.78;;;16.12;100.00
23733;BME280;12047;53.450;-2.286;2023-05-12T03:57:55;102127.63;;;16.40;100.00
23733;BME280;12047;53.450;-2.286;2023-05-12T04:02:56;102130.88;;;16.24;100.00
23733;BME280;12047;53.450;-2.286;2023-05-12T04:07:56;102141.44;;;16.45;100.00
23733;BME280;12047;53.450;-2.286;2023-05-12T04:12:57;102147.50;;;16.76;100.00
23733;BME280;12047;53.450;-2.286;2023-05-12T04:17:57;102156.97;;;17.08;100.00
23733;BME280;12047;53.450;-2.286;2023-05-12T04:22:59;102161.72;;;16.77;100.00
23733;BME280;12047;53.450;-2.286;2023-05-12T04:28:00;102156.94;;;16.80;100.00
23733;BME280;12047;53.450;-2.286;2023-05-12T04:33:00;102163.09;;;16.61;100.00
23733;BME280;12047;53.450;-2.286;2023-05-12T04:38:01;102165.75;;;16.13;100.00
23733;BME280;12047;53.450;-2.286;2023-05-12T04:43:01;102168.72;;;17.07;100.00
23733;BME280;12047;53.450;-2.286;2023-05-12T04:48:02;102172.97;;;16.90;100.00
23733;BME280;12047;53.450;-2.286;2023-05-12T04:53:02;102179.72;;;16.84;100.00
23733;BME280;12047;53.450;-2.286;2023-05-12T04:58:03;102191.00;;;16.49;100.00
23733;BME280;12047;53.450;-2.286;2023-05-12T05:03:03;102195.81;;;16.65;100.00
23733;BME280;12047;53.450;-2.286;2023-05-12T05:08:04;102205.22;;;16.50;100.00
23733;BME280;12047;53.450;-2.286;2023-05-12T05:13:05;102202.81;;;16.27;100.00
23733;BME280;12047;53.450;-2.286;2023-05-12T05:18:05;102211.41;;;16.60;100.00
23733;BME280;12047;53.450;-2.286;2023-05-12T05:23:06;102215.63;;;16.33;100.00
23733;BME280;12047;53.450;-2.286;2023-05-12T05:28:06;102221.59;;;16.66;100.00
23733;BME280;12047;53.450;-2.286;2023-05-12T05:33:08;102235.25;;;16.92;100.00
23733;BME280;12047;53.450;-2.286;2023-05-12T05:38:09;102227.94;;;16.65;100.00
23733;BME280;12047;53.450;-2.286;2023-05-12T05:43:09;102229.13;;;17.28;100.00
23733;BME280;12047;53.450;-2.286;2023-05-12T05:48:10;102238.31;;;17.73;100.00
23733;BME280;12047;53.450;-2.286;2023-05-12T05:53:11;102255.09;;;17.09;100.00
23733;BME280;12047;53.450;-2.286;2023-05-12T05:58:11;102250.94;;;17.43;100.00
23733;BME280;12047;53.450;-2.286;2023-05-12T06:03:12;102264.31;;;17.53;100.00
23733;BME280;12047;53.450;-2.286;2023-05-12T06:08:12;102279.00;;;18.23;100.00
23733;BME280;12047;53.450;-2.286;2023-05-12T06:13:14;102283.56;;;18.13;100.00
23733;BME280;12047;53.450;-2.286;2023-05-12T06:18:14;102284.41;;;18.13;100.00
23733;BME280;12047;53.450;-2.286;2023-05-12T06:23:15;102288.91;;;18.22;100.00
23733;BME280;12047;53.450;-2.286;2023-05-12T06:28:16;102286.56;;;17.07;100.00
23733;BME280;12047;53.450;-2.286;2023-05-12T06:33:16;102291.81;;;18.01;100.00
23733;BME280;12047;53.450;-2.286;2023-05-12T06:38:17;102286.94;;;17.31;100.00
23733;BME280;12047;53.450;-2.286;2023-05-12T06:43:17;102288.94;;;17.00;100.00
23733;BME280;12047;53.450;-2.286;2023-05-12T06:48:18;102294.38;;;17.37;100.00
23733;BME280;12047;53.450;-2.286;2023-05-12T06:53:19;102296.19;;;17.65;100.00
23733;BME280;12047;53.450;-2.286;2023-05-12T06:58:19;102303.88;;;17.22;100.00
23733;BME280;12047;53.450;-2.286;2023-05-12T07:03:21;102310.06;;;17.98;100.00
23733;BME280;12047;53.450;-2.286;2023-05-12T07:08:21;102310.84;;;17.61;100.00
23733;BME280;12047;53.450;-2.286;2023-05-12T07:13:22;102322.97;;;17.75;100.00
23733;BME280;12047;53.450;-2.286;2023-05-12T07:18:22;102316.13;;;18.00;100.00
23733;BME280;12047;53.450;-2.286;2023-05-12T07:23:23;102328.50;;;17.54;100.00
23733;BME280;12047;53.450;-2.286;2023-05-12T07:28:23;102332.19;;;17.53;100.00
23733;BME280;12047;53.450;-2.286;2023-05-12T07:33:24;102324.41;;;17.70;100.00
23733;BME280;12047;53.450;-2.286;2023-05-12T07:38:24;102340.03;;;18.21;100.00
23733;BME280;12047;53.450;-2.286;2023-05-12T07:43:25;102350.06;;;18.46;100.00
23733;BME280;12047;53.450;-2.286;2023-05-12T07:48:26;102341.97;;;18.56;100.00
23733;BME280;12047;53.450;-2.286;2023-05-12T07:53:26;102348.53;;;19.07;100.00
23733;BME280;12047;53.450;-2.286;2023-05-12T07:58:27;102354.53;;;19.00;100.00
23733;BME280;12047;53.450;-2.286;2023-05-12T08:03:28;102357.75;;;18.86;100.00
23733;BME280;12047;53.450;-2.286;2023-05-12T08:08:28;102359.81;;;18.47;100.00
23733;BME280;12047;53.450;-2.286;2023-05-12T08:13:29;102371.38;;;18.48;100.00
23733;BME280;12047;53.450;-2.286;2023-05-12T08:18:29;102365.78;;;18.59;100.00
23733;BME280;12047;53.450;-2.286;2023-05-12T08:23:30;102369.72;;;19.10;100.00
23733;BME280;12047;53.450;-2.286;2023-05-12T08:28:30;102371.56;;;18.91;100.00
23733;BME280;12047;53.450;-2.286;2023-05-12T08:33:33;102373.69;;;18.88;100.00
23733;BME280;12047;53.450;-2.286;2023-05-12T08:38:34;102370.00;;;18.71;100.00
23733;BME280;12047;53.450;-2.286;2023-05-12T08:43:44;102366.81;;;19.03;100.00
23733;BME280;12047;53.450;-2.286;2023-05-12T08:48:45;102370.75;;;19.70;100.00
23733;BME280;12047;53.450;-2.286;2023-05-12T08:53:49;102370.66;;;19.54;100.00
23733;BME280;12047;53.450;-2.286;2023-05-12T08:58:53;102390.75;;;18.96;100.00
23733;BME280;12047;53.450;-2.286;2023-05-12T09:03:54;102385.44;;;20.01;100.00
23733;BME280;12047;53.450;-2.286;2023-05-12T09:08:55;102383.09;;;20.75;100.00
23733;BME280;12047;53.450;-2.286;2023-05-12T09:14:23;102397.13;;;19.66;100.00
23733;BME280;12047;53.450;-2.286;2023-05-12T09:19:24;102387.13;;;20.02;100.00
23733;BME280;12047;53.450;-2.286;2023-05-12T09:29:35;102393.22;;;19.43;100.00
23733;BME280;12047;53.450;-2.286;2023-05-12T09:34:36;102391.84;;;20.09;100.00
23733;BME280;12047;53.450;-2.286;2023-05-12T09:39:37;102389.56;;;20.56;100.00
23733;BME280;12047;53.450;-2.286;2023-05-12T09:44:38;102382.63;;;21.12;100.00
23733;BME280;12047;53.450;-2.286;2023-05-12T09:49:45;102392.94;;;20.50;100.00
23733;BME280;12047;53.450;-2.286;2023-05-12T09:54:46;102396.56;;;20.75;100.00
23733;BME280;12047;53.450;-2.286;2023-05-12T09:59:48;102392.41;;;21.13;100.00
23733;BME280;12047;53.450;-2.286;2023-05-12T10:04:50;102391.44;;;21.54;100.00
23733;BME280;12047;53.450;-2.286;2023-05-12T10:09:54;102390.38;;;21.06;100.00
23733;BME280;12047;53.450;-2.286;2023-05-12T10:14:59;102390.59;;;21.62;100.00
23733;BME280;12047;53.450;-2.286;2023-05-12T10:20:01;102402.63;;;22.31;100.00
23733;BME280;12047;53.450;-2.286;2023-05-12T10:25:01;102402.22;;;21.30;100.00
23733;BME280;12047;53.450;-2.286;2023-05-12T10:30:03;102400.00;;;21.90;100.00
23733;BME280;12047;53.450;-2.286;2023-05-12T10:35:13;102402.56;;;21.76;100.00
23733;BME280;12047;53.450;-2.286;2023-05-12T10:40:22;102409.28;;;21.80;100.00
23733;BME280;12047;53.450;-2.286;2023-05-12T10:45:23;102409.41;;;21.05;100.00
23733;BME280;12047;53.450;-2.286;2023-05-12T10:50:27;102408.31;;;21.40;100.00
23733;BME280;12047;53.450;-2.286;2023-05-12T10:55:31;102419.03;;;20.49;100.00
23733;BME280;12047;53.450;-2.286;2023-05-12T11:00:43;102424.75;;;21.13;100.00
23733;BME280;12047;53.450;-2.286;2023-05-12T11:05:44;102422.13;;;21.45;100.00
23733;BME280;12047;53.450;-2.286;2023-05-12T11:10:45;102421.31;;;20.78;100.00
23733;BME280;12047;53.450;-2.286;2023-05-12T11:15:47;102418.41;;;21.87;100.00
23733;BME280;12047;53.450;-2.286;2023-05-12T11:20:49;102433.16;;;21.10;100.00
23733;BME280;12047;53.450;-2.286;2023-05-12T11:25:50;102429.97;;;20.98;100.00
23733;BME280;12047;53.450;-2.286;2023-05-12T11:30:52;102426.72;;;20.86;100.00
23733;BME280;12047;53.450;-2.286;2023-05-12T11:35:52;102434.44;;;20.39;100.00
23733;BME280;12047;53.450;-2.286;2023-05-12T11:40:53;102425.41;;;20.98;100.00
23733;BME280;12047;53.450;-2.286;2023-05-12T11:45:54;102446.47;;;20.53;100.00
23733;BME280;12047;53.450;-2.286;2023-05-12T11:50:54;102446.22;;;20.72;100.00
23733;BME280;12047;53.450;-2.286;2023-05-12T11:55:55;102457.72;;;19.96;100.00
23733;BME280;12047;53.450;-2.286;2023-05-12T12:01:07;102449.00;;;20.02;100.00
23733;BME280;12047;53.450;-2.286;2023-05-12T12:06:09;102455.88;;;20.49;100.00
23733;BME280;12047;53.450;-2.286;2023-05-12T12:11:10;102466.13;;;21.46;100.00
23733;BME280;12047;53.450;-2.286;2023-05-12T12:16:10;102471.38;;;20.03;100.00
23733;BME280;12047;53.450;-2.286;2023-05-12T12:21:11;102478.47;;;19.86;100.00
23733;BME280;12047;53.450;-2.286;2023-05-12T12:26:11;102483.06;;;20.37;100.00
23733;BME280;12047;53.450;-2.286;2023-05-12T12:31:14;102472.13;;;19.52;100.00
23733;BME280;12047;53.450;-2.286;2023-05-12T12:36:14;102484.16;;;20.27;100.00
23733;BME280;12047;53.450;-2.286;2023-05-12T12:41:15;102491.69;;;19.44;100.00
23733;BME280;12047;53.450;-2.286;2023-05-12T12:46:16;102491.63;;;19.72;100.00
23733;BME280;12047;53.450;-2.286;2023-05-12T12:51:16;102497.41;;;20.80;100.00
23733;BME280;12047;53.450;-2.286;2023-05-12T12:56:17;102502.63;;;19.78;100.00
23733;BME280;12047;53.450;-2.286;2023-05-12T13:01:17;102503.38;;;20.58;100.00
23733;BME280;12047;53.450;-2.286;2023-05-12T13:06:18;102498.13;;;20.90;100.00
23733;BME280;12047;53.450;-2.286;2023-05-12T13:11:18;102497.44;;;20.54;100.00
23733;BME280;12047;53.450;-2.286;2023-05-12T13:16:19;102500.44;;;20.43;100.00
23733;BME280;12047;53.450;-2.286;2023-05-12T13:21:19;102504.66;;;20.46;100.00
23733;BME280;12047;53.450;-2.286;2023-05-12T13:26:20;102512.47;;;20.13;100.00
23733;BME280;12047;53.450;-2.286;2023-05-12T13:31:20;102517.91;;;20.39;100.00
23733;BME280;12047;53.450;-2.286;2023-05-12T13:36:21;102511.56;;;20.04;100.00
23733;BME280;12047;53.450;-2.286;2023-05-12T13:41:21;102522.34;;;19.87;100.00
23733;BME280;12047;53.450;-2.286;2023-05-12T13:46:22;102511.06;;;20.45;100.00
23733;BME280;12047;53.450;-2.286;2023-05-12T13:51:22;102522.22;;;19.53;100.00
23733;BME280;12047;53.450;-2.286;2023-05-12T13:56:23;102521.06;;;19.55;100.00
23733;BME280;12047;53.450;-2.286;2023-05-12T14:01:23;102525.28;;;19.58;100.00
23733;BME280;12047;53.450;-2.286;2023-05-12T14:06:24;102525.19;;;20.73;100.00
23733;BME280;12047;53.450;-2.286;2023-05-12T14:11:25;102525.66;;;19.81;100.00
23733;BME280;12047;53.450;-2.286;2023-05-12T14:16:26;102525.47;;;19.74;100.00
23733;BME280;12047;53.450;-2.286;2023-05-12T14:21:26;102526.56;;;20.07;100.00
23733;BME280;12047;53.450;-2.286;2023-05-12T14:26:27;102531.22;;;19.34;100.00
23733;BME280;12047;53.450;-2.286;2023-05-12T14:31:27;102527.09;;;20.11;100.00
23733;BME280;12047;53.450;-2.286;2023-05-12T14:36:28;102530.91;;;19.37;100.00
23733;BME280;12047;53.450;-2.286;2023-05-12T14:41:28;102537.13;;;19.20;100.00
23733;BME280;12047;53.450;-2.286;2023-05-12T14:46:29;102541.25;;;19.59;100.00
23733;BME280;12047;53.450;-2.286;2023-05-12T14:51:29;102536.88;;;19.31;100.00
23733;BME280;12047;53.450;-2.286;2023-05-12T14:56:30;102534.13;;;19.23;100.00
23733;BME280;12047;53.450;-2.286;2023-05-12T15:01:30;102536.06;;;19.76;100.00
23733;BME280;12047;53.450;-2.286;2023-05-12T15:06:31;102535.38;;;18.64;100.00
23733;BME280;12047;53.450;-2.286;2023-05-12T15:11:32;102537.75;;;19.77;100.00
23733;BME280;12047;53.450;-2.286;2023-05-12T15:16:33;102542.59;;;19.00;100.00
23733;BME280;12047;53.450;-2.286;2023-05-12T15:21:33;102543.81;;;19.61;100.00
23733;BME280;12047;53.450;-2.286;2023-05-12T15:26:36;102551.13;;;19.68;100.00
23733;BME280;12047;53.450;-2.286;2023-05-12T15:31:36;102546.03;;;19.20;100.00
23733;BME280;12047;53.450;-2.286;2023-05-12T15:36:37;102538.84;;;19.38;100.00
23733;BME280;12047;53.450;-2.286;2023-05-12T15:41:38;102530.22;;;19.35;100.00
23733;BME280;12047;53.450;-2.286;2023-05-12T15:46:39;102533.31;;;19.40;100.00
23733;BME280;12047;53.450;-2.286;2023-05-12T15:51:40;102529.16;;;19.28;100.00
23733;BME280;12047;53.450;-2.286;2023-05-12T15:56:42;102519.69;;;18.69;100.00
23733;BME280;12047;53.450;-2.286;2023-05-12T16:01:42;102517.47;;;19.19;100.00
23733;BME280;12047;53.450;-2.286;2023-05-12T16:06:43;102511.81;;;19.40;100.00
23733;BME280;12047;53.450;-2.286;2023-05-12T16:11:43;102510.47;;;19.72;100.00
23733;BME280;12047;53.450;-2.286;2023-05-12T16:16:44;102505.88;;;19.36;100.00
23733;BME280;12047;53.450;-2.286;2023-05-12T16:21:48;102515.59;;;19.65;100.00
23733;BME280;12047;53.450;-2.286;2023-05-12T16:26:48;102519.00;;;18.94;100.00
23733;BME280;12047;53.450;-2.286;2023-05-12T16:31:49;102524.78;;;19.54;100.00
23733;BME280;12047;53.450;-2.286;2023-05-12T16:36:50;102515.38;;;19.94;100.00
23733;BME280;12047;53.450;-2.286;2023-05-12T16:41:50;102521.28;;;19.17;100.00
23733;BME280;12047;53.450;-2.286;2023-05-12T16:46:51;102526.63;;;18.62;100.00
23733;BME280;12047;53.450;-2.286;2023-05-12T16:51:51;102525.56;;;18.82;100.00
23733;BME280;12047;53.450;-2.286;2023-05-12T16:56:52;102527.69;;;18.22;100.00
23733;BME280;12047;53.450;-2.286;2023-05-12T17:01:52;102527.50;;;18.53;100.00
23733;BME280;12047;53.450;-2.286;2023-05-12T17:06:53;102521.25;;;18.62;100.00
23733;BME280;12047;53.450;-2.286;2023-05-12T17:11:53;102528.50;;;18.52;100.00
23733;BME280;12047;53.450;-2.286;2023-05-12T17:16:54;102530.28;;;18.71;100.00
23733;BME280;12047;53.450;-2.286;2023-05-12T17:21:54;102537.75;;;18.77;100.00
23733;BME280;12047;53.450;-2.286;2023-05-12T17:26:55;102540.00;;;18.15;100.00
23733;BME280;12047;53.450;-2.286;2023-05-12T17:31:56;102540.00;;;18.15;100.00
23733;BME280;12047;53.450;-2.286;2023-05-12T17:36:57;102541.41;;;18.29;100.00
23733;BME280;12047;53.450;-2.286;2023-05-12T17:41:58;102536.19;;;18.18;100.00
23733;BME280;12047;53.450;-2.286;2023-05-12T17:46:59;102541.25;;;18.11;100.00
23733;BME280;12047;53.450;-2.286;2023-05-12T17:52:00;102544.25;;;17.89;100.00
23733;BME280;12047;53.450;-2.286;2023-05-12T17:57:03;102548.84;;;18.35;100.00
23733;BME280;12047;53.450;-2.286;2023-05-12T18:02:03;102544.53;;;17.86;100.00
23733;BME280;12047;53.450;-2.286;2023-05-12T18:07:05;102556.81;;;17.88;100.00
23733;BME280;12047;53.450;-2.286;2023-05-12T18:12:06;102560.84;;;17.63;100.00
23733;BME280;12047;53.450;-2.286;2023-05-12T18:17:06;102558.94;;;18.04;100.00
23733;BME280;12047;53.450;-2.286;2023-05-12T18:22:07;102557.94;;;17.95;100.00
23733;BME280;12047;53.450;-2.286;2023-05-12T18:27:08;102564.28;;;17.94;100.00
23733;BME280;12047;53.450;-2.286;2023-05-12T18:32:08;102567.13;;;17.74;100.00
23733;BME280;12047;53.450;-2.286;2023-05-12T18:37:09;102569.63;;;17.65;100.00
23733;BME280;12047;53.450;-2.286;2023-05-12T18:42:13;102562.53;;;17.55;100.00
23733;BME280;12047;53.450;-2.286;2023-05-12T18:47:14;102574.75;;;17.38;100.00
23733;BME280;12047;53.450;-2.286;2023-05-12T18:52:14;102574.63;;;17.30;100.00
23733;BME280;12047;53.450;-2.286;2023-05-12T18:57:15;102584.63;;;17.38;100.00
23733;BME280;12047;53.450;-2.286;2023-05-12T19:02:16;102583.38;;;17.32;100.00
23733;BME280;12047;53.450;-2.286;2023-05-12T19:07:16;102588.44;;;17.25;100.00
23733;BME280;12047;53.450;-2.286;2023-05-12T19:12:17;102594.50;;;17.27;100.00
23733;BME280;12047;53.450;-2.286;2023-05-12T19:17:17;102608.25;;;17.13;100.00
23733;BME280;12047;53.450;-2.286;2023-05-12T19:22:18;102599.47;;;17.02;100.00
23733;BME280;12047;53.450;-2.286;2023-05-12T19:27:18;102603.44;;;17.47;100.00
23733;BME280;12047;53.450;-2.286;2023-05-12T19:32:21;102605.47;;;17.24;100.00
23733;BME280;12047;53.450;-2.286;2023-05-12T19:37:22;102617.84;;;16.44;100.00
23733;BME280;12047;53.450;-2.286;2023-05-12T19:42:24;102623.66;;;16.49;100.00
23733;BME280;12047;53.450;-2.286;2023-05-12T19:47:25;102627.69;;;16.43;100.00
23733;BME280;12047;53.450;-2.286;2023-05-12T19:52:26;102637.03;;;16.49;100.00
23733;BME280;12047;53.450;-2.286;2023-05-12T19:57:29;102641.28;;;16.51;100.00
23733;BME280;12047;53.450;-2.286;2023-05-12T20:02:30;102640.16;;;16.54;100.00
23733;BME280;12047;53.450;-2.286;2023-05-12T20:07:32;102642.34;;;15.96;100.00
23733;BME280;12047;53.450;-2.286;2023-05-12T20:12:32;102644.34;;;15.83;100.00
23733;BME280;12047;53.450;-2.286;2023-05-12T20:17:33;102651.81;;;16.00;100.00
23733;BME280;12047;53.450;-2.286;2023-05-12T20:22:34;102645.50;;;16.01;100.00
23733;BME280;12047;53.450;-2.286;2023-05-12T20:27:34;102654.13;;;16.05;100.00
23733;BME280;12047;53.450;-2.286;2023-05-12T20:32:35;102669.75;;;16.20;100.00
23733;BME280;12047;53.450;-2.286;2023-05-12T20:37:36;102668.28;;;16.16;100.00
23733;BME280;12047;53.450;-2.286;2023-05-12T20:42:37;102666.13;;;16.63;100.00
23733;BME280;12047;53.450;-2.286;2023-05-12T20:47:38;102668.16;;;16.82;100.00
23733;BME280;12047;53.450;-2.286;2023-05-12T20:52:40;102671.44;;;16.53;100.00
23733;BME280;12047;53.450;-2.286;2023-05-12T20:57:40;102674.75;;;16.46;100.00
23733;BME280;12047;53.450;-2.286;2023-05-12T21:02:41;102675.66;;;15.92;100.00
23733;BME280;12047;53.450;-2.286;2023-05-12T21:07:41;102678.31;;;16.03;100.00
23733;BME280;12047;53.450;-2.286;2023-05-12T21:12:42;102676.56;;;15.48;100.00
23733;BME280;12047;53.450;-2.286;2023-05-12T21:17:43;102683.22;;;15.53;100.00
23733;BME280;12047;53.450;-2.286;2023-05-12T21:22:44;102681.75;;;15.38;100.00
23733;BME280;12047;53.450;-2.286;2023-05-12T21:27:44;102680.75;;;14.94;100.00
23733;BME280;12047;53.450;-2.286;2023-05-12T21:32:46;102684.69;;;15.46;100.00
23733;BME280;12047;53.450;-2.286;2023-05-12T21:37:47;102699.72;;;15.03;100.00
23733;BME280;12047;53.450;-2.286;2023-05-12T21:42:48;102696.91;;;14.93;100.00
23733;BME280;12047;53.450;-2.286;2023-05-12T21:47:49;102700.28;;;14.84;100.00
23733;BME280;12047;53.450;-2.286;2023-05-12T21:52:50;102700.81;;;14.65;100.00
23733;BME280;12047;53.450;-2.286;2023-05-12T21:57:50;102689.28;;;15.00;100.00
23733;BME280;12047;53.450;-2.286;2023-05-12T22:02:51;102694.25;;;15.04;100.00
23733;BME280;12047;53.450;-2.286;2023-05-12T22:07:51;102688.84;;;14.23;100.00
23733;BME280;12047;53.450;-2.286;2023-05-12T22:12:52;102690.22;;;14.52;100.00
23733;BME280;12047;53.450;-2.286;2023-05-12T22:17:53;102680.59;;;14.85;100.00
23733;BME280;12047;53.450;-2.286;2023-05-12T22:22:53;102680.78;;;15.06;100.00
23733;BME280;12047;53.450;-2.286;2023-05-12T22:27:53;102683.72;;;14.56;100.00
23733;BME280;12047;53.450;-2.286;2023-05-12T22:32:54;102673.66;;;14.71;100.00
23733;BME280;12047;53.450;-2.286;2023-05-12T22:37:55;102670.59;;;14.06;100.00
23733;BME280;12047;53.450;-2.286;2023-05-12T22:42:56;102668.53;;;14.57;100.00
23733;BME280;12047;53.450;-2.286;2023-05-12T22:47:56;102667.06;;;15.21;100.00
23733;BME280;12047;53.450;-2.286;2023-05-12T22:52:57;102660.56;;;14.68;100.00
23733;BME280;12047;53.450;-2.286;2023-05-12T22:57:57;102672.66;;;15.07;100.00
23733;BME280;12047;53.450;-2.286;2023-05-12T23:02:58;102660.44;;;14.70;100.00
23733;BME280;12047;53.450;-2.286;2023-05-12T23:07:59;102657.44;;;14.74;100.00
23733;BME280;12047;53.450;-2.286;2023-05-12T23:13:02;102661.13;;;15.29;100.00
23733;BME280;12047;53.450;-2.286;2023-05-12T23:18:02;102655.66;;;15.19;100.00
23733;BME280;12047;53.450;-2.286;2023-05-12T23:23:03;102657.31;;;14.76;100.00
23733;BME280;12047;53.450;-2.286;2023-05-12T23:28:03;102664.97;;;14.91;100.00
23733;BME280;12047;53.450;-2.286;2023-05-12T23:33:05;102655.50;;;14.87;100.00
23733;BME280;12047;53.450;-2.286;2023-05-12T23:38:05;102651.63;;;14.91;100.00
23733;BME280;12047;53.450;-2.286;2023-05-12T23:43:06;102655.19;;;15.25;100.00
23733;BME280;12047;53.450;-2.286;2023-05-12T23:48:07;102653.38;;;15.26;100.00
23733;BME280;12047;53.450;-2.286;2023-05-12T23:53:07;102659.41;;;14.83;100.00
23733;BME280;12047;53.450;-2.286;2023-05-12T23:58:08;102644.59;;;15.13;100.00
